Terminal Aerodrome Forecast
Issued by NWS

Home | Current Version | Previous Version | Text Only | Print | Product List | Glossary On
Versions: 1 2 3 4 5 6 7 8 9 10 11 12 13 14 15 16 17 18 19 20 21 22
000
FTUS41 KALY 082328
TAFPSF
TAF
KPSF 082328Z 0900/0924 28010G17KT P6SM BKN070
     FM090600 28012G22KT P6SM VCSH OVC050
     FM091300 29015G25KT P6SM VCSH SCT025 OVC040=

USA.gov is the U.S. government's official web portal to all federal, state and local government web resources and services.